createdAt,value
2023-01-24T00:01:18.276Z,84.66
2023-01-24T00:03:45.941Z,85.34
2023-01-24T00:06:13.538Z,85.75
2023-01-24T00:08:41.242Z,85.82
2023-01-24T00:11:11.441Z,85.85
2023-01-24T00:13:39.771Z,85.53
2023-01-24T00:16:09.508Z,85.71
2023-01-24T00:18:38.617Z,85.48
2023-01-24T00:21:10.288Z,85.44
2023-01-24T00:23:38.213Z,85.45
2023-01-24T00:26:06.066Z,85.23
2023-01-24T00:28:33.848Z,85.62
2023-01-24T00:31:01.822Z,85.38
2023-01-24T00:33:29.514Z,85.59
2023-01-24T00:35:58.416Z,85.93
2023-01-24T00:38:26.173Z,86.27
2023-01-24T00:40:53.867Z,86.25
2023-01-24T00:43:21.437Z,86.15
2023-01-24T00:45:49.013Z,85.69
2023-01-24T00:48:16.835Z,86.24
2023-01-24T00:50:44.424Z,86.13
2023-01-24T00:53:13.614Z,86.04
2023-01-24T00:55:44.706Z,86.14
2023-01-24T00:58:12.902Z,86.17
2023-01-24T01:00:41.249Z,85.48
2023-01-24T01:03:11.824Z,85.61
2023-01-24T01:05:39.478Z,86.42
2023-01-24T01:08:07.231Z,86.27
2023-01-24T01:10:36.250Z,86.11
2023-01-24T01:13:04.571Z,86.25
2023-01-24T01:15:32.905Z,86.40
2023-01-24T01:18:01.017Z,85.54
2023-01-24T01:20:28.848Z,85.42
2023-01-24T01:22:56.878Z,85.57
2023-01-24T01:25:24.586Z,85.18
2023-01-24T01:27:53.663Z,85.27
2023-01-24T01:30:21.314Z,85.34
2023-01-24T01:32:48.876Z,85.46
2023-01-24T01:35:16.784Z,85.31
2023-01-24T01:37:44.433Z,85.13
2023-01-24T01:40:12.816Z,84.76
2023-01-24T01:42:51.006Z,85.16
2023-01-24T01:45:40.055Z,85.46
2023-01-24T01:48:17.178Z,85.09
2023-01-24T01:50:49.512Z,85.01
2023-01-24T01:53:17.767Z,84.98
2023-01-24T01:55:49.723Z,84.97
2023-01-24T01:58:19.516Z,85.21
2023-01-24T02:00:51.630Z,85.92
2023-01-24T02:03:40.251Z,85.39
2023-01-24T02:06:12.691Z,85.32
2023-01-24T02:08:41.994Z,86.05
2023-01-24T02:11:29.072Z,84.60
2023-01-24T02:14:17.102Z,85.31
2023-01-24T02:16:45.053Z,85.45
2023-01-24T02:19:22.537Z,85.97
2023-01-24T02:21:57.349Z,85.50
2023-01-24T02:24:35.006Z,85.35
2023-01-24T02:27:03.971Z,85.69
2023-01-24T02:29:31.649Z,86.08
2023-01-24T02:32:00.997Z,85.28
2023-01-24T02:34:30.139Z,85.38
2023-01-24T02:37:00.732Z,86.07
2023-01-24T02:39:31.829Z,85.65
2023-01-24T02:42:03.256Z,85.23
2023-01-24T02:44:37.395Z,85.76
2023-01-24T02:47:05.554Z,85.46
2023-01-24T02:49:33.233Z,85.75
2023-01-24T02:52:18.369Z,85.94
2023-01-24T02:54:45.981Z,85.57
2023-01-24T02:57:31.110Z,85.57
2023-01-24T03:00:00.121Z,85.48
2023-01-24T03:02:27.822Z,85.52
2023-01-24T03:04:55.686Z,85.21
2023-01-24T03:07:23.265Z,84.73
2023-01-24T03:09:50.833Z,85.93
2023-01-24T03:12:35.888Z,85.04
2023-01-24T03:15:23.070Z,85.43
2023-01-24T03:18:08.506Z,85.46
2023-01-24T03:20:54.017Z,85.59
2023-01-24T03:23:39.114Z,85.65
2023-01-24T03:26:24.244Z,85.74
2023-01-24T03:29:09.829Z,85.70
2023-01-24T03:31:56.708Z,86.12
2023-01-24T03:34:33.709Z,85.83
2023-01-24T03:37:02.742Z,86.02
2023-01-24T03:39:48.181Z,85.44
2023-01-24T03:42:15.849Z,85.68
2023-01-24T03:44:43.619Z,84.71
2023-01-24T03:47:12.585Z,85.17
2023-01-24T03:49:57.883Z,84.64
2023-01-24T03:52:31.619Z,85.45
2023-01-24T03:55:00.620Z,85.18
2023-01-24T03:57:29.187Z,85.62
2023-01-24T03:59:57.084Z,85.54
2023-01-24T04:02:26.104Z,85.14
2023-01-24T04:05:11.531Z,85.90
2023-01-24T04:07:39.067Z,85.74
2023-01-24T04:10:08.268Z,85.56
2023-01-24T04:12:35.852Z,84.99
2023-01-24T04:15:03.507Z,86.26
2023-01-24T04:17:32.409Z,86.11
2023-01-24T04:19:59.967Z,86.26
2023-01-24T04:22:27.596Z,86.68
2023-01-24T04:24:55.151Z,86.25
2023-01-24T04:27:22.770Z,86.81
2023-01-24T04:29:50.369Z,86.58
2023-01-24T04:32:17.957Z,86.06
2023-01-24T04:34:46.859Z,86.51
2023-01-24T04:37:14.474Z,85.62
2023-01-24T04:39:42.227Z,86.18
2023-01-24T04:42:09.819Z,86.16
2023-01-24T04:44:37.451Z,85.48
2023-01-24T04:47:05.304Z,85.38
2023-01-24T04:49:32.988Z,85.25
2023-01-24T04:52:01.878Z,85.22
2023-01-24T04:54:29.490Z,85.81
2023-01-24T04:56:57.177Z,85.32
2023-01-24T04:59:24.842Z,85.64
2023-01-24T05:01:52.419Z,86.20
2023-01-24T05:04:20.228Z,85.47
2023-01-24T05:06:47.868Z,85.44
2023-01-24T05:09:16.787Z,85.17
2023-01-24T05:11:47.154Z,85.51
2023-01-24T05:14:14.747Z,85.53
2023-01-24T05:16:42.338Z,86.07
2023-01-24T05:19:09.931Z,85.41
2023-01-24T05:21:37.506Z,85.70
2023-01-24T05:24:05.984Z,85.98
2023-01-24T05:26:35.011Z,85.66
2023-01-24T05:29:02.760Z,85.99
2023-01-24T05:31:30.569Z,86.19
2023-01-24T05:33:58.318Z,85.95
2023-01-24T05:36:26.272Z,85.95
2023-01-24T05:38:53.851Z,85.51
2023-01-24T05:41:22.224Z,85.81
2023-01-24T05:43:51.735Z,86.03
2023-01-24T05:46:20.987Z,86.70
2023-01-24T05:48:49.769Z,86.48
2023-01-24T05:51:20.606Z,86.15
2023-01-24T05:53:48.920Z,86.07
2023-01-24T05:56:19.326Z,85.57
2023-01-24T05:58:47.904Z,85.94
2023-01-24T06:01:18.700Z,85.43
2023-01-24T06:03:47.894Z,85.66
2023-01-24T06:06:16.914Z,85.00
2023-01-24T06:08:45.385Z,85.65
2023-01-24T06:11:15.064Z,86.18
2023-01-24T06:13:42.982Z,85.84
2023-01-24T06:16:13.901Z,86.10
2023-01-24T06:18:43.512Z,85.33
2023-01-24T06:21:38.602Z,85.74
2023-01-24T06:24:07.176Z,85.89
2023-01-24T06:26:35.527Z,85.19
2023-01-24T06:29:03.899Z,85.75
2023-01-24T06:31:40.290Z,85.53
2023-01-24T06:34:23.128Z,85.52
2023-01-24T06:37:04.874Z,85.53
2023-01-24T06:39:34.929Z,84.62
2023-01-24T06:42:02.963Z,85.76
2023-01-24T06:44:31.122Z,86.12
2023-01-24T06:46:58.957Z,86.27
2023-01-24T06:49:27.924Z,86.03
2023-01-24T06:51:55.525Z,85.04
2023-01-24T06:54:23.131Z,85.25
2023-01-24T06:56:50.665Z,85.48
2023-01-24T06:59:18.264Z,85.47
2023-01-24T07:01:45.883Z,85.73
2023-01-24T07:04:13.514Z,85.36
2023-01-24T07:06:42.683Z,85.93
2023-01-24T07:09:10.365Z,86.20
2023-01-24T07:11:38.732Z,85.50
2023-01-24T07:14:06.367Z,85.75
2023-01-24T07:16:33.913Z,85.82
2023-01-24T07:19:02.023Z,85.64
2023-01-24T07:21:30.044Z,85.45
2023-01-24T07:23:59.703Z,85.06
2023-01-24T07:26:28.115Z,84.72
2023-01-24T07:28:55.688Z,84.14
2023-01-24T07:31:23.407Z,84.72
2023-01-24T07:33:51.138Z,85.51
2023-01-24T07:36:18.916Z,85.39
2023-01-24T07:38:46.491Z,85.43
2023-01-24T07:41:15.470Z,86.20
2023-01-24T07:43:43.031Z,86.14
2023-01-24T07:46:10.681Z,85.47
2023-01-24T07:48:38.296Z,85.12
2023-01-24T07:51:06.359Z,86.53
2023-01-24T07:53:34.355Z,85.50
2023-01-24T07:56:02.971Z,85.91
2023-01-24T07:58:32.854Z,84.63
2023-01-24T08:01:00.747Z,84.69
2023-01-24T08:03:28.345Z,85.68
2023-01-24T08:05:56.256Z,86.03
2023-01-24T08:08:23.878Z,84.88
2023-01-24T08:10:51.550Z,85.93
2023-01-24T08:13:19.150Z,85.54
2023-01-24T08:15:48.023Z,86.21
2023-01-24T08:18:15.600Z,85.58
2023-01-24T08:20:43.233Z,85.20
2023-01-24T08:23:10.911Z,84.61
2023-01-24T08:25:38.855Z,85.28
2023-01-24T08:28:06.518Z,84.26
2023-01-24T08:30:34.042Z,85.20
2023-01-24T08:33:05.102Z,85.35
2023-01-24T08:35:33.974Z,85.67
2023-01-24T08:38:01.845Z,85.55
2023-01-24T08:40:33.148Z,86.33
2023-01-24T08:43:05.627Z,86.09
2023-01-24T08:45:33.247Z,86.67
2023-01-24T08:48:01.246Z,86.71
2023-01-24T08:50:30.188Z,86.29
2023-01-24T08:52:58.847Z,86.61
2023-01-24T08:55:26.739Z,86.39
2023-01-24T08:58:00.314Z,85.66
2023-01-24T09:00:28.071Z,85.46
2023-01-24T09:02:55.694Z,85.47
2023-01-24T09:05:23.611Z,84.94
2023-01-24T09:07:52.736Z,85.24
2023-01-24T09:10:20.381Z,85.87
2023-01-24T09:12:47.996Z,85.74
2023-01-24T09:15:15.594Z,84.97
2023-01-24T09:17:43.234Z,84.99
2023-01-24T09:20:11.983Z,84.91
2023-01-24T09:22:39.670Z,84.27
2023-01-24T09:25:10.668Z,85.14
2023-01-24T09:27:38.597Z,86.07
2023-01-24T09:30:07.422Z,85.22
2023-01-24T09:32:35.096Z,85.18
2023-01-24T09:35:02.842Z,84.19
2023-01-24T09:37:30.493Z,84.30
2023-01-24T09:40:00.525Z,85.31
2023-01-24T09:42:40.055Z,84.04
2023-01-24T09:45:19.599Z,84.67
2023-01-24T09:47:52.212Z,84.56
2023-01-24T09:50:23.119Z,85.47
2023-01-24T09:52:55.080Z,86.06
2023-01-24T09:55:27.501Z,84.85
2023-01-24T09:58:00.898Z,84.73
2023-01-24T10:00:31.248Z,85.28
2023-01-24T10:03:01.498Z,84.81
2023-01-24T10:05:34.876Z,84.96
2023-01-24T10:08:13.494Z,85.04
2023-01-24T10:11:01.572Z,84.66
2023-01-24T10:13:55.459Z,84.63
2023-01-24T10:16:45.776Z,84.18
2023-01-24T10:19:31.599Z,84.44
2023-01-24T10:22:11.572Z,84.58
2023-01-24T10:24:43.423Z,83.66
2023-01-24T10:27:29.209Z,84.22
2023-01-24T10:30:01.971Z,83.62
2023-01-24T10:32:33.547Z,83.40
2023-01-24T10:35:12.794Z,83.65
2023-01-24T10:37:45.566Z,83.40
2023-01-24T10:40:14.729Z,84.49
2023-01-24T10:42:42.406Z,84.09
2023-01-24T10:45:37.262Z,84.68
2023-01-24T10:48:14.149Z,84.72
2023-01-24T10:50:44.092Z,84.42
2023-01-24T10:53:15.771Z,84.59
2023-01-24T10:55:59.579Z,84.76
2023-01-24T10:58:29.186Z,84.99
2023-01-24T11:00:59.999Z,84.70
2023-01-24T11:03:30.374Z,84.32
2023-01-24T11:05:59.760Z,84.07
2023-01-24T11:08:33.771Z,84.73
2023-01-24T11:11:02.492Z,84.58
2023-01-24T11:13:36.861Z,84.82
2023-01-24T11:16:09.192Z,85.21
2023-01-24T11:18:38.103Z,84.85
2023-01-24T11:21:09.162Z,84.49
2023-01-24T11:23:36.799Z,83.95
2023-01-24T11:26:06.747Z,84.75
2023-01-24T11:28:35.781Z,84.24
2023-01-24T11:31:06.213Z,83.83
2023-01-24T11:34:05.793Z,83.45
2023-01-24T11:36:42.683Z,84.59
2023-01-24T11:39:22.770Z,83.41
2023-01-24T11:41:56.169Z,84.27
2023-01-24T11:44:49.765Z,84.80
2023-01-24T11:47:20.242Z,83.93
2023-01-24T11:50:10.300Z,82.76
2023-01-24T11:52:54.636Z,83.07
2023-01-24T11:55:35.790Z,83.63
2023-01-24T11:58:30.899Z,83.23
2023-01-24T12:01:10.491Z,83.59
2023-01-24T12:03:56.667Z,83.86
2023-01-24T12:06:34.757Z,84.00
2023-01-24T12:09:15.361Z,83.40
2023-01-24T12:11:48.751Z,83.10
2023-01-24T12:14:58.844Z,83.43
2023-01-24T12:17:44.852Z,83.97
2023-01-24T12:20:45.811Z,83.46
2023-01-24T12:23:21.398Z,83.23
2023-01-24T12:25:53.071Z,83.44
2023-01-24T12:28:29.603Z,82.73
2023-01-24T12:31:00.285Z,83.42
2023-01-24T12:33:33.812Z,82.78
2023-01-24T12:36:07.758Z,83.64
2023-01-24T12:38:42.851Z,83.75
2023-01-24T12:41:20.406Z,83.24
2023-01-24T12:44:00.283Z,83.42
2023-01-24T12:46:34.946Z,82.72
2023-01-24T12:49:15.406Z,82.87
2023-01-24T12:51:48.940Z,82.70
2023-01-24T12:54:22.393Z,83.15
2023-01-24T12:56:59.282Z,82.95
2023-01-24T12:59:29.164Z,83.56
2023-01-24T13:02:31.994Z,83.58
2023-01-24T13:05:15.426Z,84.63
2023-01-24T13:07:56.576Z,84.32
2023-01-24T13:10:46.101Z,84.68
2023-01-24T13:13:20.955Z,84.18
2023-01-24T13:16:03.723Z,83.55
2023-01-24T13:18:44.917Z,83.85
2023-01-24T13:21:20.274Z,84.70
2023-01-24T13:24:13.253Z,84.47
2023-01-24T13:27:00.640Z,84.39
2023-01-24T13:29:53.025Z,84.45
2023-01-24T13:32:23.327Z,84.39
2023-01-24T13:34:54.068Z,85.04
2023-01-24T13:37:26.088Z,85.13
2023-01-24T13:40:03.241Z,83.89
2023-01-24T13:42:37.579Z,83.80
2023-01-24T13:45:48.000Z,84.46
2023-01-24T13:48:48.080Z,83.75
2023-01-24T13:51:47.224Z,83.10
2023-01-24T13:54:37.282Z,83.91
2023-01-24T13:57:19.470Z,83.44
2023-01-24T14:00:03.607Z,83.19
2023-01-24T14:02:33.924Z,82.26
2023-01-24T14:05:01.529Z,84.42
2023-01-24T14:07:31.008Z,84.36
2023-01-24T14:10:00.354Z,83.98
2023-01-24T14:12:28.794Z,83.74
2023-01-24T14:15:07.454Z,84.31
2023-01-24T14:17:49.991Z,84.35
2023-01-24T14:20:24.935Z,84.38
2023-01-24T14:22:57.029Z,83.80
2023-01-24T14:25:45.026Z,83.72
2023-01-24T14:28:25.118Z,84.21
2023-01-24T14:30:58.652Z,85.28
2023-01-24T14:33:35.776Z,84.59
2023-01-24T14:36:13.009Z,84.01
2023-01-24T14:38:40.659Z,85.03
2023-01-24T14:41:22.671Z,84.50
2023-01-24T14:43:51.407Z,85.37
2023-01-24T14:46:25.383Z,84.35
2023-01-24T14:48:53.329Z,84.07
2023-01-24T14:51:24.984Z,84.66
2023-01-24T14:53:54.149Z,83.74
2023-01-24T14:56:23.261Z,83.10
2023-01-24T14:58:53.826Z,82.50
2023-01-24T15:01:27.564Z,84.01
2023-01-24T15:03:57.462Z,83.70
2023-01-24T15:06:26.437Z,82.98
2023-01-24T15:08:58.913Z,83.40
2023-01-24T15:11:30.914Z,84.08
2023-01-24T15:14:01.821Z,83.24
2023-01-24T15:16:37.060Z,84.17
2023-01-24T15:19:07.478Z,84.40
2023-01-24T15:21:39.540Z,83.31
2023-01-24T15:24:14.922Z,82.60
2023-01-24T15:26:44.498Z,83.04
2023-01-24T15:29:38.809Z,83.37
2023-01-24T15:32:45.449Z,84.07
2023-01-24T15:35:28.260Z,84.67
2023-01-24T15:38:11.548Z,83.66
2023-01-24T15:40:48.187Z,84.59
2023-01-24T15:43:37.209Z,84.63
2023-01-24T15:46:23.865Z,84.84
2023-01-24T15:48:58.456Z,84.22
2023-01-24T15:51:34.844Z,84.98
2023-01-24T15:54:10.162Z,85.24
2023-01-24T15:56:51.139Z,85.33
2023-01-24T15:59:22.881Z,85.11
2023-01-24T16:01:50.579Z,85.27
2023-01-24T16:04:19.830Z,84.88
2023-01-24T16:06:48.886Z,85.25
2023-01-24T16:09:16.828Z,86.59
2023-01-24T16:11:46.876Z,86.30
2023-01-24T16:14:18.110Z,85.23
2023-01-24T16:16:45.819Z,84.89
2023-01-24T16:19:17.148Z,83.88
2023-01-24T16:21:44.803Z,85.29
2023-01-24T16:24:14.262Z,84.41
2023-01-24T16:26:45.587Z,84.50
2023-01-24T16:29:16.014Z,84.63
2023-01-24T16:31:43.716Z,84.81
2023-01-24T16:34:11.356Z,84.83
2023-01-24T16:36:39.211Z,84.76
2023-01-24T16:39:07.992Z,84.53
2023-01-24T16:41:36.943Z,84.12
2023-01-24T16:44:05.122Z,83.97
2023-01-24T16:46:32.802Z,84.12
2023-01-24T16:49:00.986Z,84.08
2023-01-24T16:51:28.939Z,82.67
2023-01-24T16:53:57.022Z,83.84
2023-01-24T16:56:25.007Z,84.31
2023-01-24T16:58:57.237Z,84.13
2023-01-24T17:01:24.839Z,84.80
2023-01-24T17:03:53.196Z,85.42
2023-01-24T17:06:22.064Z,84.23
2023-01-24T17:08:51.875Z,84.90
2023-01-24T17:11:23.102Z,84.02
2023-01-24T17:13:51.465Z,84.42
2023-01-24T17:16:20.576Z,83.89
2023-01-24T17:18:48.134Z,83.60
2023-01-24T17:21:17.301Z,84.35
2023-01-24T17:23:45.193Z,84.17
2023-01-24T17:26:14.571Z,84.29
2023-01-24T17:28:43.907Z,84.28
2023-01-24T17:31:12.694Z,84.65
2023-01-24T17:33:42.401Z,85.75
2023-01-24T17:36:12.787Z,86.18
2023-01-24T17:38:41.202Z,84.70
2023-01-24T17:41:12.800Z,83.80
2023-01-24T17:43:51.814Z,83.41
2023-01-24T17:46:20.338Z,82.58
2023-01-24T17:48:49.381Z,82.57
2023-01-24T17:51:18.720Z,81.88
2023-01-24T17:53:47.641Z,82.47
2023-01-24T17:56:16.700Z,82.84
2023-01-24T17:58:44.644Z,82.38
2023-01-24T18:01:15.375Z,82.98
2023-01-24T18:03:44.372Z,82.19
2023-01-24T18:06:14.355Z,82.68
2023-01-24T18:08:41.957Z,83.04
2023-01-24T18:11:10.361Z,82.38
2023-01-24T18:13:38.594Z,81.16
2023-01-24T18:16:08.776Z,82.30
2023-01-24T18:18:38.273Z,82.31
2023-01-24T18:21:09.540Z,83.92
2023-01-24T18:23:38.934Z,84.72
2023-01-24T18:26:07.777Z,84.63
2023-01-24T18:28:36.059Z,82.94
2023-01-24T18:31:07.891Z,84.65
2023-01-24T18:33:35.609Z,84.15
2023-01-24T18:36:07.974Z,82.74
2023-01-24T18:38:35.599Z,83.51
2023-01-24T18:41:04.868Z,83.89
2023-01-24T18:43:32.432Z,84.31
2023-01-24T18:46:03.090Z,83.72
2023-01-24T18:48:33.535Z,83.54
2023-01-24T18:51:05.845Z,82.55
2023-01-24T18:53:33.464Z,82.68
2023-01-24T18:56:01.510Z,82.26
2023-01-24T18:58:32.127Z,82.68
2023-01-24T19:01:00.239Z,81.78
2023-01-24T19:03:27.854Z,81.99
2023-01-24T19:05:55.470Z,83.14
2023-01-24T19:08:24.104Z,83.19
2023-01-24T19:10:52.450Z,84.69
2023-01-24T19:13:20.163Z,82.70
2023-01-24T19:15:49.097Z,82.65
2023-01-24T19:18:17.817Z,83.31
2023-01-24T19:20:45.341Z,82.31
2023-01-24T19:23:13.024Z,82.81
2023-01-24T19:25:40.643Z,82.11
2023-01-24T19:28:08.288Z,82.70
2023-01-24T19:30:36.068Z,82.80
2023-01-24T19:33:05.285Z,83.47
2023-01-24T19:35:32.937Z,84.60
2023-01-24T19:38:00.760Z,84.74
2023-01-24T19:40:28.496Z,85.08
2023-01-24T19:42:56.281Z,85.58
2023-01-24T19:45:23.872Z,84.95
2023-01-24T19:47:54.436Z,84.81
2023-01-24T19:50:23.520Z,84.84
2023-01-24T19:52:51.833Z,84.01
2023-01-24T19:55:19.515Z,85.36
2023-01-24T19:57:48.003Z,84.15
2023-01-24T20:00:16.450Z,84.16
2023-01-24T20:02:46.301Z,84.96
2023-01-24T20:05:14.208Z,84.53
2023-01-24T20:07:43.238Z,83.57
2023-01-24T20:10:12.588Z,83.72
2023-01-24T20:12:41.578Z,83.14
2023-01-24T20:15:10.516Z,84.03
2023-01-24T20:17:38.174Z,85.02
2023-01-24T20:20:06.792Z,85.60
2023-01-24T20:22:34.498Z,86.25
2023-01-24T20:25:13.683Z,84.62
2023-01-24T20:27:46.411Z,83.81
2023-01-24T20:30:14.908Z,84.08
2023-01-24T20:32:43.391Z,84.74
2023-01-24T20:35:11.534Z,85.97
2023-01-24T20:37:39.311Z,85.20
2023-01-24T20:40:10.173Z,84.59
2023-01-24T20:42:41.866Z,84.02
2023-01-24T20:45:10.865Z,84.12
2023-01-24T20:47:39.136Z,84.09
2023-01-24T20:50:07.945Z,84.26
2023-01-24T20:52:35.653Z,85.19
2023-01-24T20:55:03.541Z,86.12
2023-01-24T20:57:32.631Z,85.08
2023-01-24T21:00:00.349Z,85.77
2023-01-24T21:02:28.656Z,86.14
2023-01-24T21:04:56.404Z,87.69
2023-01-24T21:07:24.113Z,86.18
2023-01-24T21:09:51.850Z,86.67
2023-01-24T21:12:19.502Z,86.67
2023-01-24T21:14:48.957Z,86.01
2023-01-24T21:17:19.657Z,86.98
2023-01-24T21:19:48.460Z,87.23
2023-01-24T21:22:16.091Z,86.97
2023-01-24T21:24:43.691Z,86.36
2023-01-24T21:27:11.333Z,86.15
2023-01-24T21:29:38.977Z,86.45
2023-01-24T21:32:08.195Z,87.40
2023-01-24T21:34:35.991Z,86.51
2023-01-24T21:37:03.572Z,86.83
2023-01-24T21:39:31.213Z,88.31
2023-01-24T21:42:00.394Z,87.86
2023-01-24T21:44:31.279Z,85.09
2023-01-24T21:46:59.132Z,86.24
2023-01-24T21:49:28.110Z,86.83
2023-01-24T21:51:59.628Z,86.83
2023-01-24T21:54:28.867Z,85.76
2023-01-24T21:57:29.611Z,85.73
2023-01-24T21:59:59.023Z,85.35
2023-01-24T22:02:28.126Z,86.21
2023-01-24T22:04:57.257Z,86.91
2023-01-24T22:07:26.586Z,86.44
2023-01-24T22:09:55.618Z,86.61
2023-01-24T22:12:23.464Z,85.55
2023-01-24T22:14:51.839Z,86.12
2023-01-24T22:17:21.342Z,85.62
2023-01-24T22:19:51.299Z,86.13
2023-01-24T22:22:46.042Z,86.56
2023-01-24T22:25:31.695Z,85.25
2023-01-24T22:27:59.803Z,85.97
2023-01-24T22:30:28.357Z,86.57
2023-01-24T22:32:56.864Z,87.67
2023-01-24T22:35:27.077Z,87.49
2023-01-24T22:37:58.165Z,87.27
2023-01-24T22:40:27.665Z,86.05
2023-01-24T22:42:57.790Z,85.79
2023-01-24T22:45:25.855Z,86.75
2023-01-24T22:47:53.648Z,86.67
2023-01-24T22:50:21.435Z,86.28
2023-01-24T22:52:50.085Z,86.19
2023-01-24T22:55:19.709Z,86.59
2023-01-24T22:57:47.592Z,87.14
2023-01-24T23:00:16.516Z,87.76
2023-01-24T23:02:44.108Z,87.30
2023-01-24T23:05:12.314Z,87.07
2023-01-24T23:07:40.207Z,87.35
2023-01-24T23:10:08.620Z,86.07
2023-01-24T23:13:06.496Z,85.71
2023-01-24T23:15:51.450Z,84.69
2023-01-24T23:18:43.532Z,84.07
2023-01-24T23:21:31.375Z,86.78
2023-01-24T23:23:59.598Z,85.91
2023-01-24T23:26:27.740Z,85.35
2023-01-24T23:29:07.278Z,86.00
2023-01-24T23:31:35.152Z,86.02
2023-01-24T23:34:03.410Z,85.19
2023-01-24T23:36:33.202Z,85.50
2023-01-24T23:39:00.860Z,85.97
2023-01-24T23:41:28.463Z,84.23
2023-01-24T23:43:56.070Z,85.63
2023-01-24T23:46:25.049Z,85.06
2023-01-24T23:48:54.890Z,86.47
2023-01-24T23:51:22.966Z,86.76
2023-01-24T23:53:50.890Z,86.27
2023-01-24T23:56:18.575Z,86.02
2023-01-24T23:58:46.140Z,86.25
